createdAt,value
2023-01-07T00:00:02.200Z,78.90
2023-01-07T00:03:16.571Z,79.06
2023-01-07T00:06:27.599Z,79.13
2023-01-07T00:09:30.058Z,79.05
2023-01-07T00:12:33.207Z,79.31
2023-01-07T00:15:37.112Z,79.17
2023-01-07T00:18:39.827Z,79.43
2023-01-07T00:21:42.825Z,79.50
2023-01-07T00:24:45.505Z,79.33
2023-01-07T00:27:48.298Z,79.43
2023-01-07T00:30:51.912Z,79.29
2023-01-07T00:33:55.252Z,78.95
2023-01-07T00:37:17.986Z,79.16
2023-01-07T00:40:22.087Z,78.87
2023-01-07T00:43:24.969Z,78.59
2023-01-07T00:46:27.512Z,78.56
2023-01-07T00:49:30.343Z,78.68
2023-01-07T00:52:32.705Z,78.39
2023-01-07T00:55:35.583Z,78.28
2023-01-07T00:58:38.458Z,78.38
2023-01-07T01:01:41.443Z,78.43
2023-01-07T01:04:44.002Z,78.40
2023-01-07T01:07:49.290Z,78.41
2023-01-07T01:10:51.650Z,78.24
2023-01-07T01:13:54.740Z,78.42
2023-01-07T01:17:02.828Z,78.50
2023-01-07T01:20:13.764Z,78.48
2023-01-07T01:23:16.238Z,78.48
2023-01-07T01:26:22.932Z,78.46
2023-01-07T01:29:28.311Z,78.05
2023-01-07T01:32:31.697Z,78.39
2023-01-07T01:35:34.202Z,78.57
2023-01-07T01:38:37.183Z,78.69
2023-01-07T01:41:40.167Z,79.17
2023-01-07T01:44:59.618Z,79.58
2023-01-07T01:48:09.755Z,80.01
2023-01-07T01:51:17.170Z,80.05
2023-01-07T01:54:20.659Z,79.82
2023-01-07T01:57:26.339Z,79.75
2023-01-07T02:00:30.197Z,79.57
2023-01-07T02:03:36.518Z,79.29
2023-01-07T02:06:50.686Z,79.15
2023-01-07T02:10:10.048Z,78.87
2023-01-07T02:13:27.817Z,79.10
2023-01-07T02:16:48.669Z,79.13
2023-01-07T02:20:12.797Z,79.26
2023-01-07T02:23:15.684Z,79.13
2023-01-07T02:26:45.641Z,79.04
2023-01-07T02:29:57.295Z,79.04
2023-01-07T02:33:14.728Z,79.14
2023-01-07T02:36:29.738Z,79.23
2023-01-07T02:40:04.334Z,79.29
2023-01-07T02:43:16.563Z,79.37
2023-01-07T02:46:25.897Z,79.50
2023-01-07T02:49:28.787Z,79.49
2023-01-07T02:52:33.381Z,79.54
2023-01-07T02:55:50.430Z,79.83
2023-01-07T02:59:06.183Z,80.01
2023-01-07T03:02:39.893Z,80.26
2023-01-07T03:06:03.956Z,80.24
2023-01-07T03:09:33.859Z,80.12
2023-01-07T03:12:54.814Z,80.02
2023-01-07T03:16:04.076Z,79.93
2023-01-07T03:19:16.636Z,79.90
2023-01-07T03:22:22.644Z,79.91
2023-01-07T03:25:30.781Z,79.89
2023-01-07T03:28:40.533Z,79.89
2023-01-07T03:32:02.951Z,79.89
2023-01-07T03:35:06.269Z,80.12
2023-01-07T03:38:10.274Z,80.19
2023-01-07T03:41:33.070Z,80.11
2023-01-07T03:44:37.057Z,80.23
2023-01-07T03:47:45.111Z,80.32
2023-01-07T03:50:48.050Z,80.21
2023-01-07T03:53:51.055Z,80.30
2023-01-07T03:56:53.528Z,80.34
2023-01-07T03:59:56.188Z,80.49
2023-01-07T04:02:58.629Z,80.72
2023-01-07T04:06:01.620Z,80.86
2023-01-07T04:09:04.297Z,80.98
2023-01-07T04:12:08.359Z,80.95
2023-01-07T04:15:11.338Z,80.90
2023-01-07T04:18:14.167Z,80.92
2023-01-07T04:21:16.573Z,80.98
2023-01-07T04:24:19.287Z,81.07
2023-01-07T04:27:21.787Z,81.10
2023-01-07T04:30:24.740Z,81.12
2023-01-07T04:33:27.253Z,80.90
2023-01-07T04:36:30.039Z,80.84
2023-01-07T04:39:32.779Z,80.81
2023-01-07T04:42:38.305Z,80.73
2023-01-07T04:45:42.205Z,80.60
2023-01-07T04:48:45.339Z,80.60
2023-01-07T04:51:47.934Z,80.48
2023-01-07T04:54:51.681Z,80.44
2023-01-07T04:57:56.397Z,80.63
2023-01-07T05:00:59.966Z,80.75
2023-01-07T05:04:03.754Z,80.90
2023-01-07T05:07:08.562Z,81.01
2023-01-07T05:10:11.003Z,80.99
2023-01-07T05:13:18.094Z,81.08
2023-01-07T05:16:21.030Z,81.20
2023-01-07T05:19:23.813Z,81.63
2023-01-07T05:22:26.865Z,81.71
2023-01-07T05:25:30.416Z,81.84
2023-01-07T05:28:32.974Z,81.93
2023-01-07T05:31:37.006Z,81.86
2023-01-07T05:34:40.123Z,82.05
2023-01-07T05:37:43.545Z,82.16
2023-01-07T05:40:50.023Z,82.07
2023-01-07T05:43:55.699Z,82.09
2023-01-07T05:46:58.167Z,82.55
2023-01-07T05:50:00.825Z,82.75
2023-01-07T05:53:03.195Z,83.05
2023-01-07T05:56:06.074Z,82.98
2023-01-07T05:59:08.450Z,82.68
2023-01-07T06:02:11.250Z,82.70
2023-01-07T06:05:13.917Z,82.51
2023-01-07T06:08:16.349Z,82.36
2023-01-07T06:11:19.061Z,82.10
2023-01-07T06:14:21.417Z,81.94
2023-01-07T06:17:24.097Z,82.03
2023-01-07T06:20:26.621Z,81.93
2023-01-07T06:23:29.645Z,81.93
2023-01-07T06:26:32.338Z,81.88
2023-01-07T06:29:35.074Z,81.52
2023-01-07T06:32:39.149Z,81.46
2023-01-07T06:35:42.253Z,81.48
2023-01-07T06:38:44.649Z,81.28
2023-01-07T06:41:47.367Z,81.01
2023-01-07T06:44:49.721Z,80.61
2023-01-07T06:47:53.619Z,80.55
2023-01-07T06:50:56.050Z,80.28
2023-01-07T06:53:58.771Z,80.30
2023-01-07T06:57:01.417Z,80.38
2023-01-07T07:00:07.612Z,80.42
2023-01-07T07:03:10.211Z,80.54
2023-01-07T07:06:12.938Z,80.52
2023-01-07T07:09:15.354Z,80.53
2023-01-07T07:12:19.319Z,80.65
2023-01-07T07:15:21.693Z,80.54
2023-01-07T07:18:24.353Z,80.71
2023-01-07T07:21:26.756Z,80.77
2023-01-07T07:24:29.409Z,80.83
2023-01-07T07:27:31.901Z,80.89
2023-01-07T07:30:45.921Z,80.93
2023-01-07T07:33:50.207Z,80.87
2023-01-07T07:36:53.034Z,80.81
2023-01-07T07:39:55.928Z,80.73
2023-01-07T07:43:11.592Z,80.42
2023-01-07T07:46:15.506Z,80.40
2023-01-07T07:49:21.360Z,80.22
2023-01-07T07:52:23.790Z,80.05
2023-01-07T07:55:26.751Z,79.84
2023-01-07T07:58:29.114Z,79.64
2023-01-07T08:01:31.918Z,79.19
2023-01-07T08:04:37.323Z,78.87
2023-01-07T08:07:39.831Z,78.55
2023-01-07T08:10:42.706Z,78.16
2023-01-07T08:13:46.412Z,77.65
2023-01-07T08:16:48.949Z,76.95
2023-01-07T08:19:51.262Z,76.55
2023-01-07T08:22:54.370Z,75.56
2023-01-07T08:26:02.859Z,75.36
2023-01-07T08:29:05.552Z,74.43
2023-01-07T08:32:07.949Z,74.19
2023-01-07T08:35:10.918Z,73.20
2023-01-07T08:38:13.464Z,71.92
2023-01-07T08:41:16.111Z,70.70
2023-01-07T08:44:18.457Z,69.75
2023-01-07T08:47:21.186Z,68.97
2023-01-07T08:50:28.385Z,68.24
2023-01-07T08:53:31.067Z,66.79
2023-01-07T08:56:33.741Z,65.32
2023-01-07T08:59:38.698Z,63.33
2023-01-07T09:02:41.119Z,62.15
2023-01-07T09:05:46.706Z,61.17
2023-01-07T09:08:52.423Z,59.51
2023-01-07T09:11:55.097Z,58.38
2023-01-07T09:14:57.639Z,57.14
2023-01-07T09:18:03.500Z,56.08
2023-01-07T09:21:06.162Z,55.83
2023-01-07T09:24:09.400Z,54.17
2023-01-07T09:27:11.850Z,53.18
2023-01-07T09:30:14.962Z,51.78
2023-01-07T09:33:17.331Z,51.34
2023-01-07T09:36:19.984Z,51.04
2023-01-07T09:39:22.324Z,49.92
2023-01-07T09:42:27.716Z,49.22
2023-01-07T09:45:36.857Z,48.14
2023-01-07T09:48:44.968Z,46.93
2023-01-07T09:51:57.289Z,46.02
2023-01-07T09:55:17.566Z,44.50
2023-01-07T09:58:21.858Z,44.35
2023-01-07T10:01:36.596Z,44.13
2023-01-07T10:05:02.222Z,44.02
2023-01-07T10:08:33.502Z,42.99
2023-01-07T10:12:17.679Z,41.89
2023-01-07T10:15:38.605Z,42.22
2023-01-07T10:18:54.759Z,43.33
2023-01-07T10:22:02.810Z,43.21
2023-01-07T10:25:19.680Z,43.00
2023-01-07T10:28:38.857Z,41.96
2023-01-07T10:31:42.712Z,40.54
2023-01-07T10:34:48.019Z,41.09
2023-01-07T10:37:51.230Z,40.60
2023-01-07T10:40:59.538Z,40.54
2023-01-07T10:44:25.890Z,40.85
2023-01-07T10:47:30.986Z,40.64
2023-01-07T10:51:17.936Z,40.70
2023-01-07T10:54:34.520Z,40.02
2023-01-07T10:57:38.855Z,38.07
2023-01-07T11:00:41.737Z,36.64
2023-01-07T11:03:47.071Z,34.95
2023-01-07T11:06:59.000Z,33.76
2023-01-07T11:10:05.480Z,33.02
2023-01-07T11:13:24.492Z,33.19
2023-01-07T11:16:31.979Z,32.57
2023-01-07T11:19:44.558Z,31.24
2023-01-07T11:22:47.243Z,30.98
2023-01-07T11:25:49.641Z,31.82
2023-01-07T11:28:56.493Z,33.36
2023-01-07T11:32:02.631Z,35.03
2023-01-07T11:35:18.039Z,37.02
2023-01-07T11:38:30.730Z,38.63
2023-01-07T11:41:53.053Z,39.79
2023-01-07T11:45:17.056Z,40.57
2023-01-07T11:48:30.327Z,40.50
2023-01-07T11:51:40.645Z,41.56
2023-01-07T11:54:50.222Z,42.34
2023-01-07T11:58:28.314Z,42.26
2023-01-07T12:01:23.272Z,43.00
2023-01-07T12:04:36.390Z,43.79
2023-01-07T12:07:44.706Z,44.66
2023-01-07T12:10:59.974Z,44.61
2023-01-07T12:14:20.164Z,45.16
2023-01-07T12:17:28.542Z,45.26
2023-01-07T12:21:24.264Z,44.69
2023-01-07T12:24:38.304Z,44.98
2023-01-07T12:27:52.827Z,45.44
2023-01-07T12:31:24.284Z,45.56
2023-01-07T12:34:51.880Z,44.92
2023-01-07T12:38:05.002Z,43.37
2023-01-07T12:41:25.403Z,42.05
2023-01-07T12:44:28.205Z,41.00
2023-01-07T12:47:38.915Z,40.75
2023-01-07T12:50:46.214Z,39.64
2023-01-07T12:54:12.241Z,39.38
2023-01-07T12:57:21.209Z,39.00
2023-01-07T13:00:27.699Z,38.42
2023-01-07T13:04:11.994Z,39.98
2023-01-07T13:07:25.439Z,40.85
2023-01-07T13:10:38.460Z,42.97
2023-01-07T13:13:45.932Z,44.19
2023-01-07T13:16:49.352Z,45.40
2023-01-07T13:19:53.024Z,46.87
2023-01-07T13:22:57.375Z,47.73
2023-01-07T13:26:44.883Z,49.36
2023-01-07T13:30:08.942Z,51.00
2023-01-07T13:33:28.880Z,51.68
2023-01-07T13:37:05.970Z,53.01
2023-01-07T13:40:24.588Z,53.95
2023-01-07T13:43:54.745Z,54.38
2023-01-07T13:46:57.453Z,55.57
2023-01-07T13:50:02.538Z,55.11
2023-01-07T13:53:26.635Z,56.35
2023-01-07T13:56:30.949Z,57.26
2023-01-07T13:59:47.973Z,57.28
2023-01-07T14:02:58.137Z,58.42
2023-01-07T14:06:22.112Z,59.57
2023-01-07T14:09:32.277Z,59.77
2023-01-07T14:13:10.013Z,60.41
2023-01-07T14:16:31.134Z,61.16
2023-01-07T14:19:58.638Z,61.78
2023-01-07T14:23:21.021Z,62.26
2023-01-07T14:26:29.994Z,62.87
2023-01-07T14:29:41.141Z,63.42
2023-01-07T14:32:46.815Z,63.79
2023-01-07T14:35:59.019Z,64.53
2023-01-07T14:39:02.660Z,65.07
2023-01-07T14:42:20.354Z,65.49
2023-01-07T14:45:41.452Z,65.75
2023-01-07T14:48:43.935Z,66.19
2023-01-07T14:52:09.668Z,66.52
2023-01-07T14:55:21.648Z,66.91
2023-01-07T14:58:59.342Z,67.34
2023-01-07T15:02:39.490Z,67.75
2023-01-07T15:06:05.192Z,68.22
2023-01-07T15:09:36.438Z,68.55
2023-01-07T15:13:01.418Z,68.89
2023-01-07T15:16:07.424Z,69.49
2023-01-07T15:19:12.756Z,70.16
2023-01-07T15:22:34.975Z,70.00
2023-01-07T15:25:57.260Z,70.37
2023-01-07T15:29:27.787Z,70.88
2023-01-07T15:32:57.942Z,71.37
2023-01-07T15:36:04.496Z,72.18
2023-01-07T15:39:13.708Z,72.51
2023-01-07T15:42:20.402Z,72.84
2023-01-07T15:45:25.149Z,73.10
2023-01-07T15:48:27.937Z,73.67
2023-01-07T15:51:39.801Z,73.60
2023-01-07T15:54:42.493Z,73.84
2023-01-07T15:57:46.380Z,74.17
2023-01-07T16:00:53.332Z,73.62
2023-01-07T16:03:57.264Z,74.50
2023-01-07T16:07:00.673Z,74.44
2023-01-07T16:10:03.635Z,74.70
2023-01-07T16:13:18.236Z,74.89
2023-01-07T16:16:21.193Z,75.11
2023-01-07T16:19:23.574Z,75.28
2023-01-07T16:22:27.836Z,75.55
2023-01-07T16:25:40.236Z,75.68
2023-01-07T16:28:48.773Z,75.92
2023-01-07T16:31:51.680Z,75.93
2023-01-07T16:35:00.416Z,75.83
2023-01-07T16:38:03.715Z,76.08
2023-01-07T16:41:06.839Z,76.49
2023-01-07T16:44:49.684Z,76.25
2023-01-07T16:48:14.994Z,75.93
2023-01-07T16:51:39.833Z,76.27
2023-01-07T16:54:46.794Z,76.72
2023-01-07T16:57:49.317Z,76.32
2023-01-07T17:00:54.145Z,76.69
2023-01-07T17:03:59.833Z,76.78
2023-01-07T17:07:02.988Z,77.38
2023-01-07T17:10:06.629Z,77.52
2023-01-07T17:13:15.408Z,77.85
2023-01-07T17:16:36.944Z,78.17
2023-01-07T17:19:42.103Z,78.22
2023-01-07T17:22:45.538Z,78.43
2023-01-07T17:25:49.199Z,78.64
2023-01-07T17:29:01.402Z,78.83
2023-01-07T17:32:04.550Z,79.00
2023-01-07T17:35:07.519Z,79.20
2023-01-07T17:38:13.120Z,79.35
2023-01-07T17:41:41.746Z,78.90
2023-01-07T17:44:45.735Z,79.36
2023-01-07T17:47:49.691Z,79.31
2023-01-07T17:50:53.585Z,79.49
2023-01-07T17:53:58.667Z,79.22
2023-01-07T17:57:01.379Z,79.28
2023-01-07T18:00:04.441Z,79.62
2023-01-07T18:03:15.154Z,79.51
2023-01-07T18:06:27.583Z,79.50
2023-01-07T18:09:29.886Z,79.83
2023-01-07T18:12:34.987Z,80.09
2023-01-07T18:15:37.363Z,79.98
2023-01-07T18:18:40.034Z,80.17
2023-01-07T18:21:42.650Z,80.58
2023-01-07T18:24:45.241Z,80.40
2023-01-07T18:27:49.295Z,80.08
2023-01-07T18:30:51.977Z,80.67
2023-01-07T18:33:54.328Z,80.65
2023-01-07T18:36:57.657Z,80.86
2023-01-07T18:40:02.340Z,80.76
2023-01-07T18:43:05.303Z,80.99
2023-01-07T18:46:09.525Z,80.84
2023-01-07T18:49:12.445Z,80.74
2023-01-07T18:52:14.781Z,80.88
2023-01-07T18:55:19.316Z,80.85
2023-01-07T18:58:22.912Z,81.02
2023-01-07T19:01:25.823Z,80.65
2023-01-07T19:04:28.516Z,80.65
2023-01-07T19:07:33.418Z,80.59
2023-01-07T19:10:41.585Z,80.62
2023-01-07T19:13:45.550Z,80.65
2023-01-07T19:16:48.084Z,80.72
2023-01-07T19:19:53.841Z,80.62
2023-01-07T19:23:00.395Z,80.87
2023-01-07T19:26:06.602Z,81.05
2023-01-07T19:29:09.761Z,81.03
2023-01-07T19:32:12.496Z,81.26
2023-01-07T19:35:15.190Z,81.21
2023-01-07T19:38:17.855Z,81.34
2023-01-07T19:41:22.394Z,81.52
2023-01-07T19:44:25.178Z,81.34
2023-01-07T19:47:27.870Z,81.35
2023-01-07T19:50:30.517Z,81.38
2023-01-07T19:53:34.561Z,81.23
2023-01-07T19:56:37.379Z,81.25
2023-01-07T19:59:39.946Z,81.70
2023-01-07T20:02:42.650Z,82.05
2023-01-07T20:05:45.408Z,81.92
2023-01-07T20:08:48.393Z,81.74
2023-01-07T20:11:51.145Z,81.64
2023-01-07T20:14:53.813Z,81.43
2023-01-07T20:17:56.581Z,81.38
2023-01-07T20:20:59.882Z,81.12
2023-01-07T20:24:04.123Z,81.06
2023-01-07T20:27:06.873Z,81.07
2023-01-07T20:30:10.894Z,81.04
2023-01-07T20:33:13.366Z,81.22
2023-01-07T20:36:28.025Z,81.02
2023-01-07T20:39:30.446Z,80.96
2023-01-07T20:42:33.084Z,80.93
2023-01-07T20:45:38.291Z,81.02
2023-01-07T20:48:42.985Z,81.10
2023-01-07T20:51:45.403Z,81.13
2023-01-07T20:54:48.100Z,81.15
2023-01-07T20:57:50.529Z,81.19
2023-01-07T21:00:53.896Z,81.22
2023-01-07T21:03:56.433Z,81.35
2023-01-07T21:06:59.103Z,81.74
2023-01-07T21:10:01.533Z,81.81
2023-01-07T21:13:05.248Z,81.82
2023-01-07T21:16:08.139Z,81.90
2023-01-07T21:19:11.363Z,81.85
2023-01-07T21:22:13.781Z,81.84
2023-01-07T21:25:18.090Z,81.89
2023-01-07T21:28:20.545Z,82.08
2023-01-07T21:31:23.681Z,82.13
2023-01-07T21:34:26.397Z,81.90
2023-01-07T21:37:29.465Z,81.94
2023-01-07T21:40:31.900Z,81.99
2023-01-07T21:43:35.113Z,82.19
2023-01-07T21:46:37.558Z,82.19
2023-01-07T21:49:40.173Z,82.20
2023-01-07T21:52:42.934Z,82.48
2023-01-07T21:55:45.773Z,82.57
2023-01-07T21:58:49.059Z,82.68
2023-01-07T22:01:52.617Z,82.81
2023-01-07T22:04:55.292Z,82.84
2023-01-07T22:07:57.824Z,82.67
2023-01-07T22:11:00.576Z,82.73
2023-01-07T22:14:02.950Z,82.77
2023-01-07T22:17:06.786Z,82.86
2023-01-07T22:20:09.948Z,83.03
2023-01-07T22:23:17.132Z,82.92
2023-01-07T22:26:20.498Z,83.10
2023-01-07T22:29:23.202Z,82.78
2023-01-07T22:32:25.513Z,82.79
2023-01-07T22:35:30.393Z,82.71
2023-01-07T22:38:33.190Z,82.73
2023-01-07T22:41:36.481Z,82.86
2023-01-07T22:44:45.952Z,82.94
2023-01-07T22:47:50.978Z,82.86
2023-01-07T22:51:07.160Z,82.80
2023-01-07T22:54:11.577Z,82.86
2023-01-07T22:57:14.691Z,82.97
2023-01-07T23:00:41.397Z,82.94
2023-01-07T23:03:45.197Z,83.10
2023-01-07T23:06:47.904Z,83.31
2023-01-07T23:09:51.655Z,83.43
2023-01-07T23:12:54.462Z,83.29
2023-01-07T23:16:00.249Z,83.21
2023-01-07T23:19:02.902Z,83.14
2023-01-07T23:22:05.479Z,83.06
2023-01-07T23:25:08.371Z,83.03
2023-01-07T23:28:10.746Z,83.12
2023-01-07T23:31:13.568Z,83.18
2023-01-07T23:34:16.453Z,83.13
2023-01-07T23:37:19.049Z,83.23
2023-01-07T23:40:21.443Z,82.91
2023-01-07T23:43:24.327Z,82.88
2023-01-07T23:46:26.703Z,82.71
2023-01-07T23:49:29.691Z,82.81
2023-01-07T23:52:31.991Z,82.67
2023-01-07T23:55:34.685Z,82.56
2023-01-07T23:58:37.931Z,82.39
